WetterOnline ( https://www.wetteronline.at )

Wetter aktuell Ponza

Aktuelles Wetter: Ponza (185m)

6-stündlich | Neueste Meldungen
Ortszeit Temperatur Wetter
So, 19.01. 13:00 12.4° C leicht bewölkt
So, 19.01. 7:00 10.4° C wolkig
So, 19.01. 1:00 11.7° C wolkig
Sa, 18.01. 19:00 11.6° C wolkig
Sa, 18.01. 13:00 12.4° C leicht bewölkt
Sa, 18.01. 7:00 9.8° C leichter Regen
Sa, 18.01. 1:00 11.2° C wolkenlos
Fr, 17.01. 19:00 11.4° C wolkenlos
Ortszeit Temperatur Wetter
So, 19.01. 18:00 12.0° C wolkig
So, 19.01. 17:00 11.8° C wolkig
So, 19.01. 16:00 12.0° C wolkig
So, 19.01. 15:00 12.2° C leicht bewölkt
So, 19.01. 14:00 12.4° C leicht bewölkt
So, 19.01. 13:00 12.4° C leicht bewölkt
Ortszeit Relative Feuchte Sichtweite
So, 19.01. 13:00 92% 20 km
So, 19.01. 7:00 98% 20 km
So, 19.01. 1:00 82% 10 km
Sa, 18.01. 19:00 95% 10 km
Sa, 18.01. 13:00 88% 15 km
Sa, 18.01. 7:00 99% 10 km
Sa, 18.01. 1:00 94% 20 km
Fr, 17.01. 19:00 98% 20 km
Ortszeit Relative Feuchte Sichtweite
So, 19.01. 18:00 86% 10 km
So, 19.01. 17:00 86% 10 km
So, 19.01. 16:00 86% 20 km
So, 19.01. 15:00 94% 20 km
So, 19.01. 14:00 89% 20 km
So, 19.01. 13:00 92% 20 km
Ortszeit Niederschlagsmenge Niederschlagsart
So, 19.01. 13:00 0.0 l/m2 in 6 Std. -
So, 19.01. 7:00 3 l/m2 in 12 Std. -
So, 19.01. 1:00 3 l/m2 in 6 Std. Regen
Sa, 18.01. 19:00 6 l/m2 in 12 Std. Regen
Sa, 18.01. 13:00 4 l/m2 in 6 Std. Regen
Sa, 18.01. 7:00 2 l/m2 in 12 Std. Regen
Sa, 18.01. 1:00 0.0 l/m2 in 6 Std. -
Fr, 17.01. 19:00 0.0 l/m2 in 12 Std. -
Ortszeit Niederschlagsmenge Niederschlagsart
So, 19.01. 18:00 keine Meldung -
So, 19.01. 17:00 keine Meldung -
So, 19.01. 16:00 keine Meldung -
So, 19.01. 15:00 keine Meldung -
So, 19.01. 14:00 keine Meldung -
So, 19.01. 13:00 keine Meldung -
Ortszeit Stärke Spitze Richtung
km/h Bft. km/h Grad Sektor
So, 19.01. 13:00 4 1 29 - -
So, 19.01. 7:00 4 1 25 - -
So, 19.01. 1:00 35 5 - 290° W
Sa, 18.01. 19:00 22 4 35 290° W
Sa, 18.01. 13:00 4 1 29 - -
Sa, 18.01. 7:00 22 4 - uml. uml.
Sa, 18.01. 1:00 11 2 20 300° NW
Fr, 17.01. 19:00 24 4 - 290° W
Ortszeit Stärke Spitze Richtung
km/h Bft. km/h Grad Sektor
So, 19.01. 18:00 17 3 - 100° O
So, 19.01. 17:00 19 3 - 110° O
So, 19.01. 16:00 19 3 - 110° O
So, 19.01. 15:00 17 3 - 110° O
So, 19.01. 14:00 19 3 - 110° O
So, 19.01. 13:00 4 1 29 - -
Ortszeit Untergrenze Bedeckung Gattung
total tief tief mittel hoch
So, 19.01. 13:00 450 m 3/8 3/8 Cu - -
So, 19.01. 7:00 450 m 6/8 6/8 Cu - -
So, 19.01. 1:00 600 m 5/8 5/8 Cu - -
Sa, 18.01. 19:00 450 m 5/8 5/8 Cu - -
Sa, 18.01. 13:00 600 m 5/8 2/8 Cu Ac -
Sa, 18.01. 7:00 450 m 8/8 6/8 Cu Ac -
Sa, 18.01. 1:00 - 0/8 0/8 - - -
Fr, 17.01. 19:00 - 0/8 0/8 - - -
Ortszeit Bedeckungsgrad in Achtel und Wolkenuntergrenze
So, 19.01. 18:00 6(300m)
So, 19.01. 17:00 7(300m) 3(1800m)
So, 19.01. 16:00 2(300m) 4(2100m)
So, 19.01. 15:00 4(2700m)
So, 19.01. 14:00 2(300m)
So, 19.01. 13:00 3(450m)
Ortszeit Luftdruck NN (hPa) Tendenz (hPa in 3 Std.)
So, 19.01. 13:00 1022 0,0
So, 19.01. 7:00 1021 + 0,2
So, 19.01. 1:00 1021 keine Meldung
Sa, 18.01. 19:00 1021 + 0,2
Sa, 18.01. 13:00 1021 - 3,2
Sa, 18.01. 7:00 1025 - 2,3
Sa, 18.01. 1:00 1027 + 0,1
Fr, 17.01. 19:00 1027 + 0,3
Ortszeit Luftdruck NN (hPa) Tendenz (hPa in 3 Std.)
So, 19.01. 18:00 1024 + 2,1
So, 19.01. 17:00 1024 + 1,6
So, 19.01. 16:00 1023 + 0,3
So, 19.01. 15:00 1022 - 0,6
So, 19.01. 14:00 1022 - 0,8
So, 19.01. 13:00 1022 0,0
Ortszeit Schneehöhe (cm)
So, 19.01. 13:00 -
So, 19.01. 7:00 0
So, 19.01. 1:00 -
Sa, 18.01. 19:00 -
Sa, 18.01. 13:00 -
Sa, 18.01. 7:00 -
Sa, 18.01. 1:00 -
Fr, 17.01. 19:00 -
Ortszeit Schneehöhe (cm)
So, 19.01. 18:00 -
So, 19.01. 17:00 -
So, 19.01. 16:00 -
So, 19.01. 15:00 -
So, 19.01. 14:00 -
So, 19.01. 13:00 -
Link zu dieser Seite / Seite empfehlen

Das Wetter in ...